sensor_id;sensor_type;location;lat;lon;timestamp;P1;durP1;ratioP1;P2;durP2;ratioP2
53931;SDS011;39844;52.496;13.482;2022-08-21T00:01:22;3.10;;;2.80;;
53931;SDS011;39844;52.496;13.482;2022-08-21T00:03:51;2.75;;;2.40;;
53931;SDS011;39844;52.496;13.482;2022-08-21T00:06:17;2.75;;;2.50;;
53931;SDS011;39844;52.496;13.482;2022-08-21T00:08:42;6.03;;;2.40;;
53931;SDS011;39844;52.496;13.482;2022-08-21T00:11:08;2.72;;;2.13;;
53931;SDS011;39844;52.496;13.482;2022-08-21T00:13:34;2.85;;;2.42;;
53931;SDS011;39844;52.496;13.482;2022-08-21T00:16:00;2.53;;;2.25;;
53931;SDS011;39844;52.496;13.482;2022-08-21T00:18:25;2.80;;;2.60;;
53931;SDS011;39844;52.496;13.482;2022-08-21T00:20:52;2.50;;;2.40;;
53931;SDS011;39844;52.496;13.482;2022-08-21T00:23:17;4.88;;;2.80;;
53931;SDS011;39844;52.496;13.482;2022-08-21T00:25:44;4.13;;;2.45;;
53931;SDS011;39844;52.496;13.482;2022-08-21T00:28:10;2.85;;;2.65;;
53931;SDS011;39844;52.496;13.482;2022-08-21T00:30:37;3.30;;;2.97;;
53931;SDS011;39844;52.496;13.482;2022-08-21T00:33:02;2.05;;;1.88;;
53931;SDS011;39844;52.496;13.482;2022-08-21T00:35:31;3.67;;;2.53;;
53931;SDS011;39844;52.496;13.482;2022-08-21T00:37:59;4.70;;;2.80;;
53931;SDS011;39844;52.496;13.482;2022-08-21T00:40:31;2.50;;;2.30;;
53931;SDS011;39844;52.496;13.482;2022-08-21T00:43:00;2.85;;;2.65;;
53931;SDS011;39844;52.496;13.482;2022-08-21T00:45:28;3.30;;;2.70;;
53931;SDS011;39844;52.496;13.482;2022-08-21T00:47:55;6.03;;;2.30;;
53931;SDS011;39844;52.496;13.482;2022-08-21T00:50:21;2.67;;;2.47;;
53931;SDS011;39844;52.496;13.482;2022-08-21T00:52:48;2.72;;;2.53;;
53931;SDS011;39844;52.496;13.482;2022-08-21T00:55:16;2.90;;;2.55;;
53931;SDS011;39844;52.496;13.482;2022-08-21T00:57:42;3.45;;;2.25;;
53931;SDS011;39844;52.496;13.482;2022-08-21T01:00:14;2.47;;;2.17;;
53931;SDS011;39844;52.496;13.482;2022-08-21T01:02:43;2.47;;;2.28;;
53931;SDS011;39844;52.496;13.482;2022-08-21T01:05:09;5.00;;;2.40;;
53931;SDS011;39844;52.496;13.482;2022-08-21T01:07:35;3.42;;;2.22;;
53931;SDS011;39844;52.496;13.482;2022-08-21T01:10:01;4.47;;;2.50;;
53931;SDS011;39844;52.496;13.482;2022-08-21T01:12:28;5.13;;;2.60;;
53931;SDS011;39844;52.496;13.482;2022-08-21T01:14:53;2.67;;;2.47;;
53931;SDS011;39844;52.496;13.482;2022-08-21T01:17:19;3.08;;;2.65;;
53931;SDS011;39844;52.496;13.482;2022-08-21T01:19:45;2.80;;;2.60;;
53931;SDS011;39844;52.496;13.482;2022-08-21T01:22:11;4.93;;;2.60;;
53931;SDS011;39844;52.496;13.482;2022-08-21T01:24:37;5.70;;;2.42;;
53931;SDS011;39844;52.496;13.482;2022-08-21T01:27:03;3.55;;;2.55;;
53931;SDS011;39844;52.496;13.482;2022-08-21T01:29:34;2.67;;;2.35;;
53931;SDS011;39844;52.496;13.482;2022-08-21T01:32:05;4.78;;;3.00;;
53931;SDS011;39844;52.496;13.482;2022-08-21T01:34:34;2.80;;;2.60;;
53931;SDS011;39844;52.496;13.482;2022-08-21T01:37:02;4.22;;;2.35;;
53931;SDS011;39844;52.496;13.482;2022-08-21T01:39:27;4.57;;;2.50;;
53931;SDS011;39844;52.496;13.482;2022-08-21T01:41:53;2.17;;;2.08;;
53931;SDS011;39844;52.496;13.482;2022-08-21T01:44:22;2.58;;;2.20;;
53931;SDS011;39844;52.496;13.482;2022-08-21T01:46:48;4.20;;;1.97;;
53931;SDS011;39844;52.496;13.482;2022-08-21T01:49:14;2.00;;;1.90;;
53931;SDS011;39844;52.496;13.482;2022-08-21T01:51:40;2.78;;;2.03;;
53931;SDS011;39844;52.496;13.482;2022-08-21T01:54:06;2.07;;;1.97;;
53931;SDS011;39844;52.496;13.482;2022-08-21T01:56:35;3.00;;;2.20;;
53931;SDS011;39844;52.496;13.482;2022-08-21T01:59:05;3.80;;;2.07;;
53931;SDS011;39844;52.496;13.482;2022-08-21T02:01:30;2.30;;;1.90;;
53931;SDS011;39844;52.496;13.482;2022-08-21T02:03:56;2.70;;;2.50;;
53931;SDS011;39844;52.496;13.482;2022-08-21T02:06:21;2.17;;;2.08;;
53931;SDS011;39844;52.496;13.482;2022-08-21T02:08:46;4.85;;;2.10;;
53931;SDS011;39844;52.496;13.482;2022-08-21T02:11:12;4.90;;;2.33;;
53931;SDS011;39844;52.496;13.482;2022-08-21T02:13:37;2.30;;;2.10;;
53931;SDS011;39844;52.496;13.482;2022-08-21T02:16:03;2.33;;;2.13;;
53931;SDS011;39844;52.496;13.482;2022-08-21T02:18:28;3.07;;;2.30;;
53931;SDS011;39844;52.496;13.482;2022-08-21T02:20:54;2.37;;;2.27;;
53931;SDS011;39844;52.496;13.482;2022-08-21T02:23:20;2.47;;;2.10;;
53931;SDS011;39844;52.496;13.482;2022-08-21T02:25:45;2.83;;;2.23;;
53931;SDS011;39844;52.496;13.482;2022-08-21T02:28:11;3.47;;;2.10;;
53931;SDS011;39844;52.496;13.482;2022-08-21T02:30:41;3.00;;;2.70;;
53931;SDS011;39844;52.496;13.482;2022-08-21T02:33:09;2.17;;;2.03;;
53931;SDS011;39844;52.496;13.482;2022-08-21T02:35:36;2.80;;;2.00;;
53931;SDS011;39844;52.496;13.482;2022-08-21T02:38:03;2.67;;;2.10;;
53931;SDS011;39844;52.496;13.482;2022-08-21T02:40:32;2.10;;;2.00;;
53931;SDS011;39844;52.496;13.482;2022-08-21T02:43:01;2.20;;;2.00;;
53931;SDS011;39844;52.496;13.482;2022-08-21T02:45:29;6.27;;;2.00;;
53931;SDS011;39844;52.496;13.482;2022-08-21T02:47:57;2.20;;;1.97;;
53931;SDS011;39844;52.496;13.482;2022-08-21T02:50:26;6.13;;;2.30;;
53931;SDS011;39844;52.496;13.482;2022-08-21T02:52:53;2.83;;;1.87;;
53931;SDS011;39844;52.496;13.482;2022-08-21T02:55:19;2.00;;;1.90;;
53931;SDS011;39844;52.496;13.482;2022-08-21T02:57:47;3.43;;;1.90;;
53931;SDS011;39844;52.496;13.482;2022-08-21T03:00:13;6.30;;;1.90;;
53931;SDS011;39844;52.496;13.482;2022-08-21T03:02:40;2.37;;;2.17;;
53931;SDS011;39844;52.496;13.482;2022-08-21T03:05:06;2.40;;;2.20;;
53931;SDS011;39844;52.496;13.482;2022-08-21T03:07:32;4.30;;;2.17;;
53931;SDS011;39844;52.496;13.482;2022-08-21T03:09:58;1.73;;;1.63;;
53931;SDS011;39844;52.496;13.482;2022-08-21T03:12:24;4.67;;;2.00;;
53931;SDS011;39844;52.496;13.482;2022-08-21T03:14:49;4.50;;;2.10;;
53931;SDS011;39844;52.496;13.482;2022-08-21T03:17:14;1.90;;;1.80;;
53931;SDS011;39844;52.496;13.482;2022-08-21T03:19:40;1.90;;;1.70;;
53931;SDS011;39844;52.496;13.482;2022-08-21T03:22:05;2.43;;;1.93;;
53931;SDS011;39844;52.496;13.482;2022-08-21T03:24:31;1.70;;;1.60;;
53931;SDS011;39844;52.496;13.482;2022-08-21T03:26:56;3.37;;;1.67;;
53931;SDS011;39844;52.496;13.482;2022-08-21T03:29:21;2.40;;;1.77;;
53931;SDS011;39844;52.496;13.482;2022-08-21T03:31:47;1.87;;;1.70;;
53931;SDS011;39844;52.496;13.482;2022-08-21T03:34:12;1.63;;;1.53;;
53931;SDS011;39844;52.496;13.482;2022-08-21T03:36:38;2.27;;;1.50;;
53931;SDS011;39844;52.496;13.482;2022-08-21T03:39:03;5.10;;;1.87;;
53931;SDS011;39844;52.496;13.482;2022-08-21T03:41:28;1.30;;;1.30;;
53931;SDS011;39844;52.496;13.482;2022-08-21T03:43:54;1.63;;;1.53;;
53931;SDS011;39844;52.496;13.482;2022-08-21T03:46:19;4.63;;;1.80;;
53931;SDS011;39844;52.496;13.482;2022-08-21T03:48:45;2.50;;;1.90;;
53931;SDS011;39844;52.496;13.482;2022-08-21T03:51:10;2.33;;;1.77;;
53931;SDS011;39844;52.496;13.482;2022-08-21T03:53:37;2.07;;;1.90;;
53931;SDS011;39844;52.496;13.482;2022-08-21T03:56:03;1.80;;;1.47;;
53931;SDS011;39844;52.496;13.482;2022-08-21T03:58:29;2.57;;;1.60;;
53931;SDS011;39844;52.496;13.482;2022-08-21T04:00:55;1.20;;;1.20;;
53931;SDS011;39844;52.496;13.482;2022-08-21T04:03:23;3.60;;;1.90;;
53931;SDS011;39844;52.496;13.482;2022-08-21T04:05:49;2.80;;;1.70;;
53931;SDS011;39844;52.496;13.482;2022-08-21T04:08:15;1.97;;;1.63;;
53931;SDS011;39844;52.496;13.482;2022-08-21T04:10:43;1.30;;;1.30;;
53931;SDS011;39844;52.496;13.482;2022-08-21T04:13:11;1.57;;;1.47;;
53931;SDS011;39844;52.496;13.482;2022-08-21T04:15:37;2.83;;;1.73;;
53931;SDS011;39844;52.496;13.482;2022-08-21T04:18:02;1.17;;;1.17;;
53931;SDS011;39844;52.496;13.482;2022-08-21T04:20:29;1.20;;;1.20;;
53931;SDS011;39844;52.496;13.482;2022-08-21T04:22:55;1.50;;;1.50;;
53931;SDS011;39844;52.496;13.482;2022-08-21T04:25:22;2.87;;;1.40;;
53931;SDS011;39844;52.496;13.482;2022-08-21T04:27:49;2.20;;;1.47;;
53931;SDS011;39844;52.496;13.482;2022-08-21T04:30:14;1.67;;;1.33;;
53931;SDS011;39844;52.496;13.482;2022-08-21T04:32:44;1.43;;;1.37;;
53931;SDS011;39844;52.496;13.482;2022-08-21T04:35:14;1.60;;;1.50;;
53931;SDS011;39844;52.496;13.482;2022-08-21T04:37:41;2.23;;;1.30;;
53931;SDS011;39844;52.496;13.482;2022-08-21T04:40:07;2.53;;;1.60;;
53931;SDS011;39844;52.496;13.482;2022-08-21T04:42:39;1.83;;;1.73;;
53931;SDS011;39844;52.496;13.482;2022-08-21T04:45:20;2.00;;;1.20;;
53931;SDS011;39844;52.496;13.482;2022-08-21T04:47:51;2.97;;;1.60;;
53931;SDS011;39844;52.496;13.482;2022-08-21T04:50:19;1.53;;;1.43;;
53931;SDS011;39844;52.496;13.482;2022-08-21T04:52:47;4.37;;;1.37;;
53931;SDS011;39844;52.496;13.482;2022-08-21T04:55:12;3.03;;;1.60;;
53931;SDS011;39844;52.496;13.482;2022-08-21T04:57:38;3.27;;;1.47;;
53931;SDS011;39844;52.496;13.482;2022-08-21T05:00:05;1.60;;;1.40;;
53931;SDS011;39844;52.496;13.482;2022-08-21T05:02:31;2.23;;;1.70;;
53931;SDS011;39844;52.496;13.482;2022-08-21T05:04:58;5.50;;;1.50;;
53931;SDS011;39844;52.496;13.482;2022-08-21T05:07:26;1.43;;;1.00;;
53931;SDS011;39844;52.496;13.482;2022-08-21T05:09:54;4.07;;;1.33;;
53931;SDS011;39844;52.496;13.482;2022-08-21T05:12:20;1.33;;;1.20;;
53931;SDS011;39844;52.496;13.482;2022-08-21T05:14:46;1.33;;;1.23;;
53931;SDS011;39844;52.496;13.482;2022-08-21T05:17:12;1.60;;;1.30;;
53931;SDS011;39844;52.496;13.482;2022-08-21T05:19:37;2.93;;;1.53;;
53931;SDS011;39844;52.496;13.482;2022-08-21T05:22:03;3.40;;;1.30;;
53931;SDS011;39844;52.496;13.482;2022-08-21T05:24:29;1.97;;;1.10;;
53931;SDS011;39844;52.496;13.482;2022-08-21T05:26:54;2.37;;;1.20;;
53931;SDS011;39844;52.496;13.482;2022-08-21T05:29:20;0.93;;;0.93;;
53931;SDS011;39844;52.496;13.482;2022-08-21T05:31:46;3.47;;;1.30;;
53931;SDS011;39844;52.496;13.482;2022-08-21T05:34:23;1.50;;;1.23;;
53931;SDS011;39844;52.496;13.482;2022-08-21T05:36:49;1.00;;;1.00;;
53931;SDS011;39844;52.496;13.482;2022-08-21T05:39:14;2.37;;;1.40;;
53931;SDS011;39844;52.496;13.482;2022-08-21T05:41:39;1.60;;;1.43;;
53931;SDS011;39844;52.496;13.482;2022-08-21T05:44:05;1.80;;;1.13;;
53931;SDS011;39844;52.496;13.482;2022-08-21T05:46:30;1.37;;;1.07;;
53931;SDS011;39844;52.496;13.482;2022-08-21T05:48:55;1.47;;;1.30;;
53931;SDS011;39844;52.496;13.482;2022-08-21T05:51:21;2.27;;;1.33;;
53931;SDS011;39844;52.496;13.482;2022-08-21T05:53:46;4.50;;;1.27;;
53931;SDS011;39844;52.496;13.482;2022-08-21T05:56:12;2.97;;;1.30;;
53931;SDS011;39844;52.496;13.482;2022-08-21T05:58:38;2.53;;;1.50;;
53931;SDS011;39844;52.496;13.482;2022-08-21T06:01:04;1.37;;;1.10;;
53931;SDS011;39844;52.496;13.482;2022-08-21T06:03:31;1.57;;;1.37;;
53931;SDS011;39844;52.496;13.482;2022-08-21T06:06:01;1.53;;;1.30;;
53931;SDS011;39844;52.496;13.482;2022-08-21T06:08:27;1.53;;;1.30;;
53931;SDS011;39844;52.496;13.482;2022-08-21T06:10:54;1.20;;;1.20;;
53931;SDS011;39844;52.496;13.482;2022-08-21T06:13:22;1.23;;;1.20;;
53931;SDS011;39844;52.496;13.482;2022-08-21T06:15:48;4.80;;;1.50;;
53931;SDS011;39844;52.496;13.482;2022-08-21T06:18:14;3.03;;;1.50;;
53931;SDS011;39844;52.496;13.482;2022-08-21T06:20:40;2.90;;;1.20;;
53931;SDS011;39844;52.496;13.482;2022-08-21T06:23:06;1.30;;;1.20;;
53931;SDS011;39844;52.496;13.482;2022-08-21T06:25:31;1.33;;;1.23;;
53931;SDS011;39844;52.496;13.482;2022-08-21T06:28:01;4.00;;;1.70;;
53931;SDS011;39844;52.496;13.482;2022-08-21T06:30:31;6.03;;;1.40;;
53931;SDS011;39844;52.496;13.482;2022-08-21T06:32:57;1.90;;;1.30;;
53931;SDS011;39844;52.496;13.482;2022-08-21T06:35:22;2.67;;;1.40;;
53931;SDS011;39844;52.496;13.482;2022-08-21T06:37:49;2.07;;;1.20;;
53931;SDS011;39844;52.496;13.482;2022-08-21T06:40:14;1.90;;;1.10;;
53931;SDS011;39844;52.496;13.482;2022-08-21T06:42:40;2.60;;;1.13;;
53931;SDS011;39844;52.496;13.482;2022-08-21T06:45:05;5.90;;;1.23;;
53931;SDS011;39844;52.496;13.482;2022-08-21T06:47:31;1.63;;;1.20;;
53931;SDS011;39844;52.496;13.482;2022-08-21T06:49:56;3.57;;;1.33;;
53931;SDS011;39844;52.496;13.482;2022-08-21T06:52:21;2.57;;;1.13;;
53931;SDS011;39844;52.496;13.482;2022-08-21T06:54:47;2.30;;;1.00;;
53931;SDS011;39844;52.496;13.482;2022-08-21T06:57:12;2.17;;;1.10;;
53931;SDS011;39844;52.496;13.482;2022-08-21T06:59:38;1.53;;;1.20;;
53931;SDS011;39844;52.496;13.482;2022-08-21T07:02:03;1.20;;;1.10;;
53931;SDS011;39844;52.496;13.482;2022-08-21T07:04:29;0.97;;;0.90;;
53931;SDS011;39844;52.496;13.482;2022-08-21T07:06:54;1.30;;;1.20;;
53931;SDS011;39844;52.496;13.482;2022-08-21T07:09:20;1.73;;;1.13;;
53931;SDS011;39844;52.496;13.482;2022-08-21T07:11:46;1.13;;;1.00;;
53931;SDS011;39844;52.496;13.482;2022-08-21T07:14:15;1.50;;;1.20;;
53931;SDS011;39844;52.496;13.482;2022-08-21T07:16:40;1.00;;;1.00;;
53931;SDS011;39844;52.496;13.482;2022-08-21T07:19:05;1.30;;;1.20;;
53931;SDS011;39844;52.496;13.482;2022-08-21T07:21:31;0.77;;;0.77;;
53931;SDS011;39844;52.496;13.482;2022-08-21T07:23:56;1.17;;;1.10;;
53931;SDS011;39844;52.496;13.482;2022-08-21T07:26:22;1.73;;;1.27;;
53931;SDS011;39844;52.496;13.482;2022-08-21T07:28:49;2.45;;;1.13;;
53931;SDS011;39844;52.496;13.482;2022-08-21T07:31:16;1.33;;;1.23;;
53931;SDS011;39844;52.496;13.482;2022-08-21T07:33:43;1.90;;;0.90;;
53931;SDS011;39844;52.496;13.482;2022-08-21T07:36:09;4.90;;;1.48;;
53931;SDS011;39844;52.496;13.482;2022-08-21T07:38:34;1.83;;;1.02;;
53931;SDS011;39844;52.496;13.482;2022-08-21T07:41:01;2.22;;;1.27;;
53931;SDS011;39844;52.496;13.482;2022-08-21T07:43:27;4.13;;;1.00;;
53931;SDS011;39844;52.496;13.482;2022-08-21T07:45:53;1.20;;;1.10;;
53931;SDS011;39844;52.496;13.482;2022-08-21T07:48:22;2.80;;;0.80;;
53931;SDS011;39844;52.496;13.482;2022-08-21T07:50:48;2.92;;;1.17;;
53931;SDS011;39844;52.496;13.482;2022-08-21T07:53:14;1.20;;;1.20;;
53931;SDS011;39844;52.496;13.482;2022-08-21T07:55:40;0.95;;;0.95;;
53931;SDS011;39844;52.496;13.482;2022-08-21T07:58:05;0.98;;;0.98;;
53931;SDS011;39844;52.496;13.482;2022-08-21T08:00:31;2.95;;;1.17;;
53931;SDS011;39844;52.496;13.482;2022-08-21T08:02:57;2.08;;;0.90;;
53931;SDS011;39844;52.496;13.482;2022-08-21T08:05:24;0.95;;;0.95;;
53931;SDS011;39844;52.496;13.482;2022-08-21T08:07:52;1.65;;;1.10;;
53931;SDS011;39844;52.496;13.482;2022-08-21T08:10:18;0.70;;;0.70;;
53931;SDS011;39844;52.496;13.482;2022-08-21T08:12:44;3.05;;;1.15;;
53931;SDS011;39844;52.496;13.482;2022-08-21T08:15:11;1.80;;;1.00;;
53931;SDS011;39844;52.496;13.482;2022-08-21T08:17:40;3.70;;;1.00;;
53931;SDS011;39844;52.496;13.482;2022-08-21T08:20:05;3.65;;;1.10;;
53931;SDS011;39844;52.496;13.482;2022-08-21T08:22:33;1.42;;;0.80;;
53931;SDS011;39844;52.496;13.482;2022-08-21T08:25:00;2.85;;;1.20;;
53931;SDS011;39844;52.496;13.482;2022-08-21T08:27:26;1.27;;;1.17;;
53931;SDS011;39844;52.496;13.482;2022-08-21T08:29:51;1.05;;;0.85;;
53931;SDS011;39844;52.496;13.482;2022-08-21T08:32:17;1.95;;;0.98;;
53931;SDS011;39844;52.496;13.482;2022-08-21T08:34:43;5.03;;;1.15;;
53931;SDS011;39844;52.496;13.482;2022-08-21T08:37:09;0.88;;;0.80;;
53931;SDS011;39844;52.496;13.482;2022-08-21T08:39:35;0.82;;;0.82;;
53931;SDS011;39844;52.496;13.482;2022-08-21T08:42:35;1.23;;;1.00;;
53931;SDS011;39844;52.496;13.482;2022-08-21T08:44:58;2.08;;;0.98;;
53931;SDS011;39844;52.496;13.482;2022-08-21T08:47:27;1.02;;;0.93;;
53931;SDS011;39844;52.496;13.482;2022-08-21T08:52:34;1.55;;;1.10;;
53931;SDS011;39844;52.496;13.482;2022-08-21T08:55:21;1.15;;;0.82;;
53931;SDS011;39844;52.496;13.482;2022-08-21T08:57:51;1.35;;;1.00;;
53931;SDS011;39844;52.496;13.482;2022-08-21T09:00:19;1.45;;;0.93;;
53931;SDS011;39844;52.496;13.482;2022-08-21T09:02:46;0.98;;;0.98;;
53931;SDS011;39844;52.496;13.482;2022-08-21T09:11:18;3.22;;;0.95;;
53931;SDS011;39844;52.496;13.482;2022-08-21T09:14:14;1.58;;;1.10;;
53931;SDS011;39844;52.496;13.482;2022-08-21T09:16:50;1.35;;;1.20;;
53931;SDS011;39844;52.496;13.482;2022-08-21T09:24:32;3.85;;;1.02;;
53931;SDS011;39844;52.496;13.482;2022-08-21T09:27:23;1.17;;;0.95;;
53931;SDS011;39844;52.496;13.482;2022-08-21T09:29:49;0.88;;;0.88;;
53931;SDS011;39844;52.496;13.482;2022-08-21T09:32:20;1.30;;;0.65;;
53931;SDS011;39844;52.496;13.482;2022-08-21T09:34:54;1.33;;;1.23;;
53931;SDS011;39844;52.496;13.482;2022-08-21T09:37:22;1.70;;;1.27;;
53931;SDS011;39844;52.496;13.482;2022-08-21T09:39:48;3.83;;;1.63;;
53931;SDS011;39844;52.496;13.482;2022-08-21T09:42:20;1.25;;;1.13;;
53931;SDS011;39844;52.496;13.482;2022-08-21T09:45:00;1.52;;;1.23;;
53931;SDS011;39844;52.496;13.482;2022-08-21T09:47:31;1.20;;;1.10;;
53931;SDS011;39844;52.496;13.482;2022-08-21T09:49:56;1.75;;;1.35;;
53931;SDS011;39844;52.496;13.482;2022-08-21T09:52:42;1.23;;;1.13;;
53931;SDS011;39844;52.496;13.482;2022-08-21T09:55:13;5.28;;;1.13;;
53931;SDS011;39844;52.496;13.482;2022-08-21T09:58:01;2.30;;;1.13;;
53931;SDS011;39844;52.496;13.482;2022-08-21T10:00:28;1.30;;;1.20;;
53931;SDS011;39844;52.496;13.482;2022-08-21T10:05:35;2.30;;;0.90;;
53931;SDS011;39844;52.496;13.482;2022-08-21T10:08:02;1.00;;;1.00;;
53931;SDS011;39844;52.496;13.482;2022-08-21T10:10:29;1.95;;;1.13;;
53931;SDS011;39844;52.496;13.482;2022-08-21T10:20:51;2.20;;;1.20;;
53931;SDS011;39844;52.496;13.482;2022-08-21T10:23:35;1.20;;;1.10;;
53931;SDS011;39844;52.496;13.482;2022-08-21T10:31:28;0.95;;;0.90;;
53931;SDS011;39844;52.496;13.482;2022-08-21T10:39:47;2.75;;;1.23;;
53931;SDS011;39844;52.496;13.482;2022-08-21T10:45:29;1.88;;;1.10;;
53931;SDS011;39844;52.496;13.482;2022-08-21T10:48:04;1.48;;;1.10;;
53931;SDS011;39844;52.496;13.482;2022-08-21T10:50:39;2.55;;;1.40;;
53931;SDS011;39844;52.496;13.482;2022-08-21T11:01:44;1.80;;;1.20;;
53931;SDS011;39844;52.496;13.482;2022-08-21T11:04:24;1.50;;;1.17;;
53931;SDS011;39844;52.496;13.482;2022-08-21T11:07:12;0.82;;;0.77;;
53931;SDS011;39844;52.496;13.482;2022-08-21T11:09:54;4.05;;;1.20;;
53931;SDS011;39844;52.496;13.482;2022-08-21T11:20:49;3.38;;;1.02;;
53931;SDS011;39844;52.496;13.482;2022-08-21T11:23:37;1.52;;;1.40;;
53931;SDS011;39844;52.496;13.482;2022-08-21T11:26:27;4.03;;;0.90;;
53931;SDS011;39844;52.496;13.482;2022-08-21T11:34:54;2.72;;;0.93;;
53931;SDS011;39844;52.496;13.482;2022-08-21T11:51:36;7.72;;;6.97;;
53931;SDS011;39844;52.496;13.482;2022-08-21T11:56:59;1.58;;;1.02;;
53931;SDS011;39844;52.496;13.482;2022-08-21T11:59:32;3.10;;;1.13;;
53931;SDS011;39844;52.496;13.482;2022-08-21T12:02:22;2.22;;;0.85;;
53931;SDS011;39844;52.496;13.482;2022-08-21T12:04:58;1.00;;;1.00;;
53931;SDS011;39844;52.496;13.482;2022-08-21T12:09:58;0.75;;;0.75;;
53931;SDS011;39844;52.496;13.482;2022-08-21T12:12:31;0.70;;;0.70;;
53931;SDS011;39844;52.496;13.482;2022-08-21T12:17:51;0.85;;;0.85;;
53931;SDS011;39844;52.496;13.482;2022-08-21T12:20:21;0.70;;;0.70;;
53931;SDS011;39844;52.496;13.482;2022-08-21T12:23:06;4.05;;;0.98;;
53931;SDS011;39844;52.496;13.482;2022-08-21T12:25:58;1.50;;;1.00;;
53931;SDS011;39844;52.496;13.482;2022-08-21T12:28:28;0.80;;;0.80;;
53931;SDS011;39844;52.496;13.482;2022-08-21T12:30:55;1.88;;;0.90;;
53931;SDS011;39844;52.496;13.482;2022-08-21T12:33:35;0.95;;;0.75;;
53931;SDS011;39844;52.496;13.482;2022-08-21T12:36:09;0.75;;;0.75;;
53931;SDS011;39844;52.496;13.482;2022-08-21T12:41:19;1.65;;;0.88;;
53931;SDS011;39844;52.496;13.482;2022-08-21T12:43:51;1.02;;;0.98;;
53931;SDS011;39844;52.496;13.482;2022-08-21T12:46:27;0.80;;;0.80;;
53931;SDS011;39844;52.496;13.482;2022-08-21T12:48:59;0.70;;;0.65;;
53931;SDS011;39844;52.496;13.482;2022-08-21T12:51:35;0.63;;;0.63;;
53931;SDS011;39844;52.496;13.482;2022-08-21T12:54:20;0.70;;;0.70;;
53931;SDS011;39844;52.496;13.482;2022-08-21T12:57:02;1.00;;;0.90;;
53931;SDS011;39844;52.496;13.482;2022-08-21T12:59:31;1.48;;;1.15;;
53931;SDS011;39844;52.496;13.482;2022-08-21T13:01:58;1.00;;;1.00;;
53931;SDS011;39844;52.496;13.482;2022-08-21T13:04:32;1.10;;;1.00;;
53931;SDS011;39844;52.496;13.482;2022-08-21T13:07:04;2.33;;;0.90;;
53931;SDS011;39844;52.496;13.482;2022-08-21T13:09:32;0.73;;;0.73;;
53931;SDS011;39844;52.496;13.482;2022-08-21T13:11:57;0.75;;;0.75;;
53931;SDS011;39844;52.496;13.482;2022-08-21T13:16:57;1.10;;;0.90;;
53931;SDS011;39844;52.496;13.482;2022-08-21T13:19:24;1.02;;;0.80;;
53931;SDS011;39844;52.496;13.482;2022-08-21T13:21:50;0.63;;;0.63;;
53931;SDS011;39844;52.496;13.482;2022-08-21T13:24:50;1.23;;;0.90;;
53931;SDS011;39844;52.496;13.482;2022-08-21T13:27:16;0.68;;;0.68;;
53931;SDS011;39844;52.496;13.482;2022-08-21T13:29:44;0.80;;;0.80;;
53931;SDS011;39844;52.496;13.482;2022-08-21T13:32:13;0.80;;;0.80;;
53931;SDS011;39844;52.496;13.482;2022-08-21T13:34:46;0.90;;;0.90;;
53931;SDS011;39844;52.496;13.482;2022-08-21T13:37:12;0.90;;;0.90;;
53931;SDS011;39844;52.496;13.482;2022-08-21T13:39:39;1.50;;;0.95;;
53931;SDS011;39844;52.496;13.482;2022-08-21T13:42:08;1.10;;;1.00;;
53931;SDS011;39844;52.496;13.482;2022-08-21T13:44:39;0.68;;;0.68;;
53931;SDS011;39844;52.496;13.482;2022-08-21T13:47:06;0.75;;;0.75;;
53931;SDS011;39844;52.496;13.482;2022-08-21T13:49:36;0.93;;;0.90;;
53931;SDS011;39844;52.496;13.482;2022-08-21T13:52:04;3.00;;;1.10;;
53931;SDS011;39844;52.496;13.482;2022-08-21T13:54:40;0.70;;;0.70;;
53931;SDS011;39844;52.496;13.482;2022-08-21T14:00:20;4.05;;;1.00;;
53931;SDS011;39844;52.496;13.482;2022-08-21T14:02:51;1.13;;;0.90;;
53931;SDS011;39844;52.496;13.482;2022-08-21T14:05:25;3.13;;;1.10;;
53931;SDS011;39844;52.496;13.482;2022-08-21T14:07:59;2.63;;;1.10;;
53931;SDS011;39844;52.496;13.482;2022-08-21T14:10:29;0.98;;;0.90;;
53931;SDS011;39844;52.496;13.482;2022-08-21T14:12:57;2.30;;;1.00;;
53931;SDS011;39844;52.496;13.482;2022-08-21T14:15:27;1.42;;;1.20;;
53931;SDS011;39844;52.496;13.482;2022-08-21T14:17:54;1.08;;;1.05;;
53931;SDS011;39844;52.496;13.482;2022-08-21T14:20:32;1.42;;;1.08;;
53931;SDS011;39844;52.496;13.482;2022-08-21T14:22:59;1.10;;;1.00;;
53931;SDS011;39844;52.496;13.482;2022-08-21T14:30:19;1.45;;;1.15;;
53931;SDS011;39844;52.496;13.482;2022-08-21T14:32:47;1.38;;;1.13;;
53931;SDS011;39844;52.496;13.482;2022-08-21T14:35:13;5.25;;;1.02;;
53931;SDS011;39844;52.496;13.482;2022-08-21T14:37:41;1.50;;;1.40;;
53931;SDS011;39844;52.496;13.482;2022-08-21T14:40:07;1.60;;;1.27;;
53931;SDS011;39844;52.496;13.482;2022-08-21T14:42:33;1.75;;;1.27;;
53931;SDS011;39844;52.496;13.482;2022-08-21T14:45:00;4.75;;;1.30;;
53931;SDS011;39844;52.496;13.482;2022-08-21T14:47:30;2.65;;;1.30;;
53931;SDS011;39844;52.496;13.482;2022-08-21T14:49:55;1.15;;;1.08;;
53931;SDS011;39844;52.496;13.482;2022-08-21T14:52:21;1.85;;;1.23;;
53931;SDS011;39844;52.496;13.482;2022-08-21T14:54:47;1.35;;;1.17;;
53931;SDS011;39844;52.496;13.482;2022-08-21T14:57:13;2.38;;;1.00;;
53931;SDS011;39844;52.496;13.482;2022-08-21T14:59:39;3.78;;;1.48;;
53931;SDS011;39844;52.496;13.482;2022-08-21T15:02:05;2.10;;;1.55;;
53931;SDS011;39844;52.496;13.482;2022-08-21T15:04:32;1.58;;;1.17;;
53931;SDS011;39844;52.496;13.482;2022-08-21T15:06:59;2.95;;;1.60;;
53931;SDS011;39844;52.496;13.482;2022-08-21T15:09:24;1.20;;;1.20;;
53931;SDS011;39844;52.496;13.482;2022-08-21T15:11:51;1.63;;;1.50;;
53931;SDS011;39844;52.496;13.482;2022-08-21T15:14:20;2.30;;;1.30;;
53931;SDS011;39844;52.496;13.482;2022-08-21T15:16:50;1.40;;;1.30;;
53931;SDS011;39844;52.496;13.482;2022-08-21T15:19:16;2.42;;;1.60;;
53931;SDS011;39844;52.496;13.482;2022-08-21T15:21:42;3.58;;;1.40;;
53931;SDS011;39844;52.496;13.482;2022-08-21T15:24:07;1.50;;;1.40;;
53931;SDS011;39844;52.496;13.482;2022-08-21T15:26:34;1.67;;;1.58;;
53931;SDS011;39844;52.496;13.482;2022-08-21T15:29:00;6.68;;;1.38;;
53931;SDS011;39844;52.496;13.482;2022-08-21T15:31:25;3.50;;;1.50;;
53931;SDS011;39844;52.496;13.482;2022-08-21T15:33:52;2.40;;;1.42;;
53931;SDS011;39844;52.496;13.482;2022-08-21T15:36:17;1.40;;;1.25;;
53931;SDS011;39844;52.496;13.482;2022-08-21T15:38:43;2.88;;;1.30;;
53931;SDS011;39844;52.496;13.482;2022-08-21T15:41:09;1.65;;;1.00;;
53931;SDS011;39844;52.496;13.482;2022-08-21T15:43:37;1.40;;;1.25;;
53931;SDS011;39844;52.496;13.482;2022-08-21T15:46:12;2.72;;;1.30;;
53931;SDS011;39844;52.496;13.482;2022-08-21T15:48:38;2.83;;;1.13;;
53931;SDS011;39844;52.496;13.482;2022-08-21T15:51:04;1.67;;;1.30;;
53931;SDS011;39844;52.496;13.482;2022-08-21T15:53:29;1.25;;;1.25;;
53931;SDS011;39844;52.496;13.482;2022-08-21T15:55:57;1.52;;;1.40;;
53931;SDS011;39844;52.496;13.482;2022-08-21T15:58:25;2.60;;;1.20;;
53931;SDS011;39844;52.496;13.482;2022-08-21T16:00:51;1.40;;;1.30;;
53931;SDS011;39844;52.496;13.482;2022-08-21T16:03:17;1.98;;;1.20;;
53931;SDS011;39844;52.496;13.482;2022-08-21T16:05:47;1.55;;;1.30;;
53931;SDS011;39844;52.496;13.482;2022-08-21T16:08:14;1.77;;;1.20;;
53931;SDS011;39844;52.496;13.482;2022-08-21T16:10:39;3.50;;;1.35;;
53931;SDS011;39844;52.496;13.482;2022-08-21T16:13:06;2.50;;;1.10;;
53931;SDS011;39844;52.496;13.482;2022-08-21T16:15:36;3.45;;;1.40;;
53931;SDS011;39844;52.496;13.482;2022-08-21T16:18:01;1.60;;;1.17;;